Time;durP1;ratioP1;P1;durP2;ratioP2;P2;SDS_P1;SDS_P2;PMS_P1;PMS_P2;Temp;Humidity;BMP_temperature;BMP_pressure;BME280_temperature;BME280_humidity;BME280_pressure;Samples;Min_cycle;Max_cycle;Signal;HPM_P1;HPM_P2
2021/09/09 00:02:12;;;;;;;;;;;20.20;91.90;;;;;;5109442;28;19907;-78
2021/09/09 00:04:38;;;;;;;;;;;20.10;91.90;;;;;;5109517;28;20032;-77
2021/09/09 00:07:04;;;;;;;;;;;20.10;91.90;;;;;;5091035;28;19914;-77
2021/09/09 00:09:29;;;;;;;;;;;20.10;91.90;;;;;;5109343;28;19904;-77
2021/09/09 00:11:55;;;;;;;;;;;20.10;91.90;;;;;;5090898;28;19916;-77
2021/09/09 00:14:21;;;;;;;;;;;20.10;91.90;;;;;;5109140;28;19915;-78
2021/09/09 00:16:46;;;;;;;;;;;20.10;91.90;;;;;;5109235;28;19911;-77
2021/09/09 00:19:12;;;;;;;;;;;20.10;91.90;;;;;;5109114;28;19915;-77
2021/09/09 00:21:37;;;;;;;;;;;20.20;91.90;;;;;;5109163;28;19908;-77
2021/09/09 00:24:03;;;;;;;;;;;20.20;91.90;;;;;;5109126;28;19912;-77
2021/09/09 00:26:29;;;;;;;;;;;20.20;91.90;;;;;;5108927;28;19949;-77
2021/09/09 00:28:54;;;;;;;;;;;20.20;91.90;;;;;;5090901;28;19911;-77
2021/09/09 00:31:20;;;;;;;;;;;20.20;91.90;;;;;;5108930;28;19911;-77
2021/09/09 00:33:46;;;;;;;;;;;20.20;92.10;;;;;;5073742;28;19908;-77
2021/09/09 00:36:12;;;;;;;;;;;20.20;91.90;;;;;;5109000;28;19998;-77
2021/09/09 00:38:37;;;;;;;;;;;20.20;91.90;;;;;;5090651;28;20061;-76
2021/09/09 00:41:03;;;;;;;;;;;20.20;91.90;;;;;;5073571;28;19912;-77
2021/09/09 00:43:29;;;;;;;;;;;20.20;91.90;;;;;;5090491;28;19939;-77
2021/09/09 00:45:55;;;;;;;;;;;20.20;91.80;;;;;;5108777;28;20327;-77
2021/09/09 00:48:22;;;;;;;;;;;20.20;91.80;;;;;;5108684;28;19904;-77
2021/09/09 00:50:48;;;;;;;;;;;20.20;91.80;;;;;;5090144;28;19919;-79
2021/09/09 00:53:13;;;;;;;;;;;20.30;91.80;;;;;;5108713;28;20530;-76
2021/09/09 00:55:39;;;;;;;;;;;20.30;91.80;;;;;;5108334;28;19965;-77
2021/09/09 00:58:06;;;;;;;;;;;20.20;91.80;;;;;;5090512;28;20002;-77
2021/09/09 01:00:32;;;;;;;;;;;20.20;91.80;;;;;;5090165;28;19939;-78
2021/09/09 01:02:57;;;;;;;;;;;20.20;91.80;;;;;;5107762;28;19947;-76
2021/09/09 01:05:23;;;;;;;;;;;20.20;91.80;;;;;;5108326;28;19919;-78
2021/09/09 01:07:48;;;;;;;;;;;20.20;91.90;;;;;;5108473;28;20354;-78
2021/09/09 01:10:14;;;;;;;;;;;20.20;91.90;;;;;;5090086;28;20440;-77
2021/09/09 01:12:40;;;;;;;;;;;20.30;91.90;;;;;;5108231;28;20421;-77
2021/09/09 01:15:06;;;;;;;;;;;20.30;91.90;;;;;;5089948;28;19938;-76
2021/09/09 01:17:31;;;;;;;;;;;20.30;91.90;;;;;;5108632;28;19910;-77
2021/09/09 01:19:57;;;;;;;;;;;20.30;91.90;;;;;;5089931;28;19903;-77
2021/09/09 01:22:23;;;;;;;;;;;20.30;91.90;;;;;;5089777;28;19916;-78
2021/09/09 01:24:48;;;;;;;;;;;20.30;91.90;;;;;;5108061;28;19957;-78
2021/09/09 01:27:17;;;;;;;;;;;20.20;91.90;;;;;;5107794;28;20302;-77
2021/09/09 01:29:42;;;;;;;;;;;20.20;91.90;;;;;;5090384;28;19915;-77
2021/09/09 01:32:08;;;;;;;;;;;20.20;91.90;;;;;;5107936;28;19907;-77
2021/09/09 01:34:34;;;;;;;;;;;20.20;91.90;;;;;;5108090;28;20002;-78
2021/09/09 01:37:00;;;;;;;;;;;20.20;91.90;;;;;;5089753;28;19904;-77
2021/09/09 01:39:26;;;;;;;;;;;20.20;92.00;;;;;;5090042;28;19908;-76
2021/09/09 01:41:53;;;;;;;;;;;20.10;91.90;;;;;;5090347;28;19958;-78
2021/09/09 01:44:19;;;;;;;;;;;20.10;91.90;;;;;;5108533;28;19904;-77
2021/09/09 01:46:44;;;;;;;;;;;20.10;92.00;;;;;;5108236;28;19907;-77
2021/09/09 01:49:10;;;;;;;;;;;20.00;91.90;;;;;;5108220;28;20385;-76
2021/09/09 01:51:36;;;;;;;;;;;20.00;91.90;;;;;;5108073;28;19916;-76
2021/09/09 01:54:02;;;;;;;;;;;20.00;91.90;;;;;;5089929;28;19911;-77
2021/09/09 01:56:27;;;;;;;;;;;20.00;91.90;;;;;;5108302;28;20337;-76
2021/09/09 01:58:53;;;;;;;;;;;20.00;91.90;;;;;;5108005;28;19990;-75
2021/09/09 02:01:19;;;;;;;;;;;20.00;91.90;;;;;;5107974;28;19957;-76
2021/09/09 02:03:45;;;;;;;;;;;20.00;91.90;;;;;;5108087;28;19915;-76
2021/09/09 02:06:10;;;;;;;;;;;20.00;91.80;;;;;;5107924;28;19911;-77
2021/09/09 02:08:36;;;;;;;;;;;20.00;91.80;;;;;;5108448;28;19904;-76
2021/09/09 02:11:02;;;;;;;;;;;20.00;91.90;;;;;;5089630;28;20398;-76
2021/09/09 02:13:27;;;;;;;;;;;20.00;91.90;;;;;;5108751;28;20037;-76
2021/09/09 02:15:53;;;;;;;;;;;20.00;91.80;;;;;;5111692;28;19965;-76
2021/09/09 02:18:18;;;;;;;;;;;20.00;91.80;;;;;;5111502;28;19930;-74
2021/09/09 02:20:44;;;;;;;;;;;20.00;91.80;;;;;;5111409;28;19915;-76
2021/09/09 02:23:09;;;;;;;;;;;19.90;91.90;;;;;;5093073;28;19908;-77
2021/09/09 02:25:35;;;;;;;;;;;19.80;91.90;;;;;;5111242;28;20361;-77
2021/09/09 02:28:01;;;;;;;;;;;19.80;92.00;;;;;;5111289;28;19953;-77
2021/09/09 02:30:26;;;;;;;;;;;19.70;92.00;;;;;;5092980;28;19911;-78
2021/09/09 02:32:52;;;;;;;;;;;19.70;92.00;;;;;;5111093;28;19954;-77
2021/09/09 02:35:21;;;;;;;;;;;19.70;92.10;;;;;;5111111;28;19904;-78
2021/09/09 02:37:47;;;;;;;;;;;19.70;92.10;;;;;;5076246;28;19918;-77
2021/09/09 02:40:12;;;;;;;;;;;19.70;92.10;;;;;;5075802;28;20006;-76
2021/09/09 02:42:38;;;;;;;;;;;19.70;92.10;;;;;;5111156;28;19956;-76
2021/09/09 02:45:04;;;;;;;;;;;19.70;92.10;;;;;;5111196;28;19907;-76
2021/09/09 02:47:30;;;;;;;;;;;19.60;92.10;;;;;;5092565;28;19952;-77
2021/09/09 02:49:55;;;;;;;;;;;19.60;92.20;;;;;;5110646;28;19923;-76
2021/09/09 02:52:21;;;;;;;;;;;19.60;92.20;;;;;;5110685;28;19938;-76
2021/09/09 02:54:47;;;;;;;;;;;19.60;92.20;;;;;;5110754;28;20286;-76
2021/09/09 02:57:12;;;;;;;;;;;19.70;92.20;;;;;;5110653;28;20274;-76
2021/09/09 02:59:38;;;;;;;;;;;19.70;92.10;;;;;;5092542;28;19947;-77
2021/09/09 03:02:03;;;;;;;;;;;19.70;92.20;;;;;;5110617;28;20392;-77
2021/09/09 03:04:30;;;;;;;;;;;19.60;92.20;;;;;;5092196;28;19907;-76
2021/09/09 03:06:56;;;;;;;;;;;19.60;92.20;;;;;;5092037;28;19950;-77
2021/09/09 03:09:21;;;;;;;;;;;19.60;92.20;;;;;;5110486;28;19911;-77
2021/09/09 03:11:47;;;;;;;;;;;19.70;92.20;;;;;;5110354;28;20417;-77
2021/09/09 03:14:12;;;;;;;;;;;19.70;92.10;;;;;;5110408;28;19904;-76
2021/09/09 03:16:38;;;;;;;;;;;19.70;92.10;;;;;;5091895;28;20308;-76
2021/09/09 03:19:03;;;;;;;;;;;19.70;92.10;;;;;;5110287;28;19934;-76
2021/09/09 03:21:29;;;;;;;;;;;19.70;92.10;;;;;;5092098;28;19907;-76
2021/09/09 03:23:55;;;;;;;;;;;19.70;92.00;;;;;;5091888;28;19912;-76
2021/09/09 03:26:20;;;;;;;;;;;19.70;92.00;;;;;;5109331;28;20057;-77
2021/09/09 03:28:46;;;;;;;;;;;19.70;92.00;;;;;;5110110;28;20384;-76
2021/09/09 03:31:11;;;;;;;;;;;19.70;92.00;;;;;;5110059;28;19911;-76
2021/09/09 03:33:37;;;;;;;;;;;19.80;92.00;;;;;;5110083;28;19956;-77
2021/09/09 03:36:04;;;;;;;;;;;19.80;92.00;;;;;;5091546;28;19915;-76
2021/09/09 03:38:29;;;;;;;;;;;19.80;92.00;;;;;;5091533;28;19904;-77
2021/09/09 03:40:55;;;;;;;;;;;19.80;92.00;;;;;;5109893;28;19973;-76
2021/09/09 03:43:21;;;;;;;;;;;19.80;92.00;;;;;;5109788;28;19999;-76
2021/09/09 03:45:46;;;;;;;;;;;19.80;92.00;;;;;;5109690;28;20270;-76
2021/09/09 03:48:12;;;;;;;;;;;19.80;91.90;;;;;;5109672;28;19914;-76
2021/09/09 03:50:37;;;;;;;;;;;19.80;92.00;;;;;;5109416;28;19961;-76
2021/09/09 03:53:03;;;;;;;;;;;19.80;92.00;;;;;;5091067;28;19966;-77
2021/09/09 03:55:28;;;;;;;;;;;19.80;92.00;;;;;;5109468;28;19946;-76
2021/09/09 03:57:54;;;;;;;;;;;19.80;92.00;;;;;;5109479;28;19919;-76
2021/09/09 04:00:19;;;;;;;;;;;19.80;92.00;;;;;;5109501;28;19931;-77
2021/09/09 04:02:45;;;;;;;;;;;19.90;92.00;;;;;;5109314;28;19904;-76
2021/09/09 04:05:11;;;;;;;;;;;19.80;92.00;;;;;;5109282;28;20210;-76
2021/09/09 04:07:36;;;;;;;;;;;19.80;92.00;;;;;;5090895;28;19908;-77
2021/09/09 04:10:02;;;;;;;;;;;19.80;92.00;;;;;;5109301;28;19981;-76
2021/09/09 04:12:28;;;;;;;;;;;19.80;92.00;;;;;;5109229;28;19912;-78
2021/09/09 04:14:53;;;;;;;;;;;19.80;92.00;;;;;;5109123;28;19912;-76
2021/09/09 04:17:19;;;;;;;;;;;19.80;92.00;;;;;;5109012;28;20372;-76
2021/09/09 04:19:44;;;;;;;;;;;19.80;92.00;;;;;;5109149;28;19914;-77
2021/09/09 04:22:11;;;;;;;;;;;19.80;92.00;;;;;;5090770;28;19913;-78
2021/09/09 04:24:37;;;;;;;;;;;19.80;92.00;;;;;;5090765;28;19943;-77
2021/09/09 04:27:03;;;;;;;;;;;19.80;92.00;;;;;;5090610;28;19969;-78
2021/09/09 04:29:29;;;;;;;;;;;19.80;92.10;;;;;;5090708;28;20377;-77
2021/09/09 04:31:54;;;;;;;;;;;19.80;92.10;;;;;;5090614;28;19913;-77
2021/09/09 04:34:20;;;;;;;;;;;19.80;92.10;;;;;;5108735;28;20316;-76
2021/09/09 04:36:45;;;;;;;;;;;19.80;92.00;;;;;;5107848;28;20002;-76
2021/09/09 04:39:11;;;;;;;;;;;19.80;91.90;;;;;;5108505;28;19908;-75
2021/09/09 04:41:37;;;;;;;;;;;19.70;91.90;;;;;;5090389;28;19964;-76
2021/09/09 04:44:04;;;;;;;;;;;19.70;91.90;;;;;;5090741;28;20273;-77
2021/09/09 04:46:29;;;;;;;;;;;19.60;91.90;;;;;;5108679;28;19929;-76
2021/09/09 04:48:55;;;;;;;;;;;19.60;91.90;;;;;;5108570;28;19904;-77
2021/09/09 04:51:21;;;;;;;;;;;19.50;91.90;;;;;;5090095;28;20381;-76
2021/09/09 04:53:47;;;;;;;;;;;19.50;92.00;;;;;;5073429;28;20369;-76
2021/09/09 04:56:13;;;;;;;;;;;19.50;92.00;;;;;;5090246;28;19946;-78
2021/09/09 04:58:38;;;;;;;;;;;19.50;92.00;;;;;;5108628;28;19953;-77
2021/09/09 05:01:04;;;;;;;;;;;19.40;92.00;;;;;;5108487;28;19912;-77
2021/09/09 05:03:29;;;;;;;;;;;19.30;92.00;;;;;;5090102;28;19917;-76
2021/09/09 05:05:55;;;;;;;;;;;19.40;92.10;;;;;;5073233;28;19919;-72
2021/09/09 05:08:20;;;;;;;;;;;19.30;92.00;;;;;;5108360;28;19998;-76
2021/09/09 05:10:46;;;;;;;;;;;19.30;92.10;;;;;;5108313;28;20323;-76
2021/09/09 05:13:11;;;;;;;;;;;19.30;92.20;;;;;;5108229;28;20385;-76
2021/09/09 05:15:37;;;;;;;;;;;19.30;92.20;;;;;;5108177;28;19908;-76
2021/09/09 05:18:03;;;;;;;;;;;19.30;92.30;;;;;;5108241;28;20325;-76
2021/09/09 05:20:28;;;;;;;;;;;19.30;92.30;;;;;;5108226;28;19908;-76
2021/09/09 05:22:54;;;;;;;;;;;19.30;92.30;;;;;;5089993;28;20289;-76
2021/09/09 05:25:19;;;;;;;;;;;19.40;92.30;;;;;;5107878;28;19914;-77
2021/09/09 05:27:45;;;;;;;;;;;19.40;92.20;;;;;;5108011;28;19904;-76
2021/09/09 05:30:11;;;;;;;;;;;19.40;92.20;;;;;;5090019;28;19911;-76
2021/09/09 05:32:36;;;;;;;;;;;19.50;92.10;;;;;;5089677;28;20288;-76
2021/09/09 05:35:02;;;;;;;;;;;19.50;92.10;;;;;;5108014;28;19904;-77
2021/09/09 05:37:28;;;;;;;;;;;19.60;92.10;;;;;;5108007;28;20277;-77
2021/09/09 05:39:53;;;;;;;;;;;19.60;92.10;;;;;;5089909;28;19918;-76
2021/09/09 05:42:19;;;;;;;;;;;19.50;92.10;;;;;;5089854;28;19998;-76
2021/09/09 05:44:45;;;;;;;;;;;19.50;92.10;;;;;;5108013;28;19935;-77
2021/09/09 05:47:10;;;;;;;;;;;19.50;92.20;;;;;;5089987;28;20505;-77
2021/09/09 05:49:36;;;;;;;;;;;19.50;92.10;;;;;;5110554;28;20011;-77
2021/09/09 05:52:03;;;;;;;;;;;19.60;92.10;;;;;;5093675;28;20365;-79
2021/09/09 05:54:30;;;;;;;;;;;19.60;92.10;;;;;;5093588;28;19974;-76
2021/09/09 05:56:55;;;;;;;;;;;19.60;92.10;;;;;;5111598;28;19912;-76
2021/09/09 05:59:21;;;;;;;;;;;19.60;92.10;;;;;;5112325;28;20307;-77
2021/09/09 06:01:49;;;;;;;;;;;19.70;92.00;;;;;;5111683;28;20263;-78
2021/09/09 06:04:14;;;;;;;;;;;19.60;92.20;;;;;;5111588;28;19907;-78
2021/09/09 06:06:40;;;;;;;;;;;19.60;92.10;;;;;;5093383;28;20323;-77
2021/09/09 06:09:06;;;;;;;;;;;19.60;92.10;;;;;;5092921;28;19903;-76
2021/09/09 06:11:31;;;;;;;;;;;19.60;92.20;;;;;;5111620;28;19922;-71
2021/09/09 06:13:57;;;;;;;;;;;19.60;92.10;;;;;;5111241;28;20048;-77
2021/09/09 06:16:22;;;;;;;;;;;19.60;92.20;;;;;;5111362;28;20252;-76
2021/09/09 06:18:48;;;;;;;;;;;19.70;92.10;;;;;;5111156;28;19908;-76
2021/09/09 06:21:14;;;;;;;;;;;19.70;92.10;;;;;;5111200;28;19925;-78
2021/09/09 06:23:39;;;;;;;;;;;19.70;92.10;;;;;;5092968;28;19911;-77
2021/09/09 06:26:05;;;;;;;;;;;19.80;92.20;;;;;;5111125;28;19908;-77
2021/09/09 06:28:30;;;;;;;;;;;19.80;92.20;;;;;;5110943;28;19907;-76
2021/09/09 06:30:56;;;;;;;;;;;19.80;92.20;;;;;;5110968;28;19908;-75
2021/09/09 06:33:21;;;;;;;;;;;19.80;92.20;;;;;;5112243;28;20015;-72
2021/09/09 06:35:47;;;;;;;;;;;19.80;92.30;;;;;;5112483;28;19911;-77
2021/09/09 06:38:13;;;;;;;;;;;19.90;92.30;;;;;;5110843;28;20275;-76
2021/09/09 06:40:38;;;;;;;;;;;20.00;92.30;;;;;;5110987;28;19904;-73
2021/09/09 06:43:04;;;;;;;;;;;20.00;92.20;;;;;;5092572;28;20281;-75
2021/09/09 06:45:30;;;;;;;;;;;20.00;92.10;;;;;;5110775;28;19904;-74
2021/09/09 06:47:55;;;;;;;;;;;20.00;92.20;;;;;;5110593;28;20290;-76
2021/09/09 06:50:21;;;;;;;;;;;20.10;92.20;;;;;;5110282;28;20052;-75
2021/09/09 06:52:46;;;;;;;;;;;20.10;92.10;;;;;;5091941;28;19923;-76
2021/09/09 06:55:12;;;;;;;;;;;20.10;92.10;;;;;;5110174;28;19907;-75
2021/09/09 06:57:37;;;;;;;;;;;20.20;92.10;;;;;;5110871;28;19923;-76
2021/09/09 07:00:03;;;;;;;;;;;20.20;92.00;;;;;;5091683;28;20011;-75
2021/09/09 07:02:29;;;;;;;;;;;20.20;92.10;;;;;;5109476;28;19904;-75
2021/09/09 07:04:54;;;;;;;;;;;20.20;92.20;;;;;;5109880;28;19919;-75
2021/09/09 07:07:20;;;;;;;;;;;20.30;92.20;;;;;;5091553;28;19988;-76
2021/09/09 07:09:46;;;;;;;;;;;20.30;92.20;;;;;;5109919;28;19908;-76
2021/09/09 07:12:11;;;;;;;;;;;20.40;92.20;;;;;;5110016;28;19919;-76
2021/09/09 07:14:37;;;;;;;;;;;20.50;92.20;;;;;;5109688;28;20287;-76
2021/09/09 07:17:02;;;;;;;;;;;20.50;92.10;;;;;;5109531;28;19910;-76
2021/09/09 07:19:28;;;;;;;;;;;20.60;92.10;;;;;;5109727;28;19908;-76
2021/09/09 07:21:53;;;;;;;;;;;20.70;92.10;;;;;;5074414;28;19934;-75
2021/09/09 07:24:20;;;;;;;;;;;20.80;92.10;;;;;;5109616;28;19962;-75
2021/09/09 07:26:46;;;;;;;;;;;20.80;92.10;;;;;;5109570;28;19912;-75
2021/09/09 07:29:13;;;;;;;;;;;20.90;92.10;;;;;;5074015;28;19952;-75
2021/09/09 07:31:39;;;;;;;;;;;21.00;92.40;;;;;;5109440;28;19946;-75
2021/09/09 07:34:05;;;;;;;;;;;21.10;92.10;;;;;;5073778;28;19950;-75
2021/09/09 07:36:30;;;;;;;;;;;21.20;92.10;;;;;;5109020;28;19949;-75
2021/09/09 07:38:56;;;;;;;;;;;21.20;92.00;;;;;;5109386;28;19912;-74
2021/09/09 07:41:22;;;;;;;;;;;21.20;92.00;;;;;;5108869;28;19912;-72
2021/09/09 07:43:47;;;;;;;;;;;21.20;92.00;;;;;;5090569;28;19907;-75
2021/09/09 07:46:13;;;;;;;;;;;21.30;92.10;;;;;;5108612;28;19964;-75
2021/09/09 07:48:38;;;;;;;;;;;21.30;92.10;;;;;;5089938;28;20078;-77
2021/09/09 07:51:04;;;;;;;;;;;21.40;92.10;;;;;;5107912;28;19919;-75
2021/09/09 07:53:29;;;;;;;;;;;21.40;92.10;;;;;;5088192;28;20350;-77
2021/09/09 07:55:55;;;;;;;;;;;21.40;92.00;;;;;;5089914;28;19904;-77
2021/09/09 07:58:20;;;;;;;;;;;21.50;92.00;;;;;;5088770;28;19907;-77
2021/09/09 08:00:46;;;;;;;;;;;21.50;92.00;;;;;;5098318;28;20312;-76
2021/09/09 08:03:11;;;;;;;;;;;21.50;92.00;;;;;;5090182;28;19991;-75
2021/09/09 08:05:37;;;;;;;;;;;21.40;92.10;;;;;;5100778;28;19933;-76
2021/09/09 08:08:04;;;;;;;;;;;21.40;92.10;;;;;;5101161;28;19934;-76
2021/09/09 08:10:30;;;;;;;;;;;21.30;92.20;;;;;;5098581;28;19911;-75
2021/09/09 08:12:55;;;;;;;;;;;21.30;92.30;;;;;;5100757;28;19912;-76
2021/09/09 08:15:21;;;;;;;;;;;21.40;92.40;;;;;;5101121;28;19907;-75
2021/09/09 08:17:46;;;;;;;;;;;21.40;92.40;;;;;;5090600;28;20030;-75
2021/09/09 08:20:13;;;;;;;;;;;21.50;92.40;;;;;;5109309;28;20324;-76
2021/09/09 08:22:39;;;;;;;;;;;21.70;92.40;;;;;;5072945;28;19907;-76
2021/09/09 08:25:05;;;;;;;;;;;21.70;92.30;;;;;;5089750;28;19956;-76
2021/09/09 08:27:31;;;;;;;;;;;21.80;92.40;;;;;;5108003;28;19903;-76
2021/09/09 08:29:57;;;;;;;;;;;21.80;92.40;;;;;;5107770;28;19911;-76
2021/09/09 08:32:24;;;;;;;;;;;21.90;92.40;;;;;;5108221;28;19916;-77
2021/09/09 08:34:51;;;;;;;;;;;22.00;92.40;;;;;;5108419;28;19908;-76
2021/09/09 08:37:17;;;;;;;;;;;22.10;92.30;;;;;;5104749;28;19907;-76
2021/09/09 08:39:43;;;;;;;;;;;22.20;92.20;;;;;;5091198;28;20420;-77
2021/09/09 08:42:11;;;;;;;;;;;22.30;92.20;;;;;;5101196;28;19912;-76
2021/09/09 08:44:36;;;;;;;;;;;22.40;92.10;;;;;;5107570;28;20262;-77
2021/09/09 08:47:02;;;;;;;;;;;22.40;92.10;;;;;;5107633;28;20009;-76
2021/09/09 08:49:28;;;;;;;;;;;22.50;92.10;;;;;;5107546;28;19907;-77
2021/09/09 08:51:54;;;;;;;;;;;22.40;92.10;;;;;;5108219;28;19960;-76
2021/09/09 08:54:20;;;;;;;;;;;22.40;92.20;;;;;;5090142;28;20057;-76
2021/09/09 08:56:46;;;;;;;;;;;22.40;92.30;;;;;;5108029;28;19916;-76
2021/09/09 08:59:11;;;;;;;;;;;22.50;92.40;;;;;;5107987;28;20385;-76
2021/09/09 09:01:57;;;;;;;;;;;22.50;92.30;;;;;;5107074;28;19958;-77
2021/09/09 09:04:22;;;;;;;;;;;22.50;92.10;;;;;;5106222;28;19914;-76
2021/09/09 09:06:50;;;;;;;;;;;22.40;92.20;;;;;;5089248;28;20002;-77
2021/09/09 09:09:19;;;;;;;;;;;22.30;92.30;;;;;;5089329;28;19904;-77
2021/09/09 09:11:45;;;;;;;;;;;22.30;92.40;;;;;;5108279;28;19934;-76
2021/09/09 09:14:12;;;;;;;;;;;22.30;92.50;;;;;;5109023;28;19914;-76
2021/09/09 09:16:43;;;;;;;;;;;22.30;92.50;;;;;;5109347;28;20020;-77
2021/09/09 09:19:12;;;;;;;;;;;22.40;92.60;;;;;;5109305;28;19903;-77
2021/09/09 09:21:41;;;;;;;;;;;22.40;92.70;;;;;;5108728;28;19990;-76
2021/09/09 09:24:07;;;;;;;;;;;22.40;92.70;;;;;;5107424;28;19908;-76
2021/09/09 09:26:32;;;;;;;;;;;22.60;92.60;;;;;;5110819;28;21696;-76
2021/09/09 09:28:59;;;;;;;;;;;22.70;92.60;;;;;;5094383;28;19908;-76
2021/09/09 09:31:29;;;;;;;;;;;22.70;92.60;;;;;;5113023;28;19941;-75
2021/09/09 09:33:56;;;;;;;;;;;22.80;92.50;;;;;;5105782;28;19925;-75
2021/09/09 09:36:24;;;;;;;;;;;22.90;92.40;;;;;;5112901;28;20346;-76
2021/09/09 09:38:50;;;;;;;;;;;23.10;92.40;;;;;;5112639;28;19908;-75
2021/09/09 09:41:17;;;;;;;;;;;23.40;92.50;;;;;;5113102;28;19904;-75
2021/09/09 09:44:03;;;;;;;;;;;23.60;92.30;;;;;;5113387;28;19904;-75
2021/09/09 09:46:31;;;;;;;;;;;23.80;92.40;;;;;;5094857;28;19907;-75
2021/09/09 09:49:17;;;;;;;;;;;24.10;92.40;;;;;;5113296;28;19908;-75
2021/09/09 09:51:44;;;;;;;;;;;24.50;92.40;;;;;;5112844;28;19927;-75
2021/09/09 09:54:10;;;;;;;;;;;25.00;92.40;;;;;;5112912;28;19904;-75
2021/09/09 09:56:36;;;;;;;;;;;25.60;92.40;;;;;;5093891;28;19950;-74
2021/09/09 09:59:01;;;;;;;;;;;26.00;91.90;;;;;;5110597;28;19939;-76
2021/09/09 10:01:28;;;;;;;;;;;26.10;91.80;;;;;;5111991;28;19956;-75
2021/09/09 10:03:56;;;;;;;;;;;26.20;91.80;;;;;;5091571;28;19965;-80
2021/09/09 10:06:22;;;;;;;;;;;26.40;91.90;;;;;;5112571;28;19907;-76
2021/09/09 10:08:48;;;;;;;;;;;26.50;91.80;;;;;;5112773;28;19932;-78
2021/09/09 10:11:14;;;;;;;;;;;26.70;91.70;;;;;;5112320;28;20373;-80
2021/09/09 10:13:40;;;;;;;;;;;27.10;91.60;;;;;;5111709;28;19915;-77
2021/09/09 10:16:06;;;;;;;;;;;27.30;91.50;;;;;;5112128;28;19908;-75
2021/09/09 10:18:31;;;;;;;;;;;27.60;91.30;;;;;;5112738;28;19951;-77
2021/09/09 10:20:57;;;;;;;;;;;27.90;90.90;;;;;;5094156;28;19930;-77
2021/09/09 10:23:25;;;;;;;;;;;28.30;91.00;;;;;;5094812;28;19961;-77
2021/09/09 10:25:54;;;;;;;;;;;28.70;91.00;;;;;;5109726;28;19908;-74
2021/09/09 10:28:45;;;;;;;;;;;29.20;90.70;;;;;;5111657;28;19907;-75
2021/09/09 10:31:15;;;;;;;;;;;29.60;90.90;;;;;;5095030;28;20322;-75
2021/09/09 10:33:45;;;;;;;;;;;30.10;90.30;;;;;;5111776;28;19910;-79
2021/09/09 10:36:29;;;;;;;;;;;30.60;90.70;;;;;;5094134;28;19915;-77
2021/09/09 10:38:55;;;;;;;;;;;31.20;90.50;;;;;;5112483;28;19908;-76
2021/09/09 10:41:28;;;;;;;;;;;31.70;90.50;;;;;;5111998;28;19907;-78
2021/09/09 10:43:56;;;;;;;;;;;32.30;90.80;;;;;;5103213;28;19907;-76
2021/09/09 10:46:28;;;;;;;;;;;32.70;90.50;;;;;;5111544;28;19904;-75
2021/09/09 10:49:06;;;;;;;;;;;33.40;90.50;;;;;;5108972;28;19953;-75
2021/09/09 10:51:33;;;;;;;;;;;34.20;90.20;;;;;;5108705;28;19930;-75
2021/09/09 10:54:00;;;;;;;;;;;35.10;87.10;;;;;;5110890;28;19912;-74
2021/09/09 10:56:33;;;;;;;;;;;35.80;86.60;;;;;;5110981;28;19972;-77
2021/09/09 10:59:19;;;;;;;;;;;36.30;84.60;;;;;;5110902;28;19910;-75
2021/09/09 11:01:46;;;;;;;;;;;35.80;83.50;;;;;;5109697;28;19911;-74
2021/09/09 11:04:29;;;;;;;;;;;36.00;84.80;;;;;;5092803;28;19915;-77
2021/09/09 11:06:55;;;;;;;;;;;36.20;84.30;;;;;;5101985;28;20316;-75
2021/09/09 11:09:20;;;;;;;;;;;36.10;83.80;;;;;;5102452;28;19951;-75
2021/09/09 11:11:54;;;;;;;;;;;35.50;82.20;;;;;;5104773;28;19955;-75
2021/09/09 11:14:22;;;;;;;;;;;34.60;82.20;;;;;;5107463;28;19998;-75
2021/09/09 11:16:47;;;;;;;;;;;33.50;82.20;;;;;;5092171;28;19916;-77
2021/09/09 11:19:18;;;;;;;;;;;32.60;82.90;;;;;;5092309;28;20358;-76
2021/09/09 11:21:44;;;;;;;;;;;31.90;82.50;;;;;;5111046;28;19915;-68
2021/09/09 11:24:11;;;;;;;;;;;31.20;82.00;;;;;;5110888;28;19908;-75
2021/09/09 11:26:37;;;;;;;;;;;30.50;82.30;;;;;;5111335;28;20327;-77
2021/09/09 11:29:04;;;;;;;;;;;30.00;82.60;;;;;;5092655;28;19936;-77
2021/09/09 11:31:30;;;;;;;;;;;29.50;83.10;;;;;;5110973;28;19908;-75
2021/09/09 11:33:57;;;;;;;;;;;29.30;83.00;;;;;;5111244;28;19908;-74
2021/09/09 11:36:25;;;;;;;;;;;29.10;83.00;;;;;;5092211;28;19942;-75
2021/09/09 11:38:51;;;;;;;;;;;29.00;82.10;;;;;;5110813;28;19904;-75
2021/09/09 11:41:19;;;;;;;;;;;28.90;82.10;;;;;;5092367;28;20270;-77
2021/09/09 11:43:50;;;;;;;;;;;28.90;81.70;;;;;;5092354;28;19913;-75
2021/09/09 11:46:33;;;;;;;;;;;28.70;82.00;;;;;;5110339;28;19908;-77
2021/09/09 11:49:11;;;;;;;;;;;28.50;82.70;;;;;;5110324;28;20363;-76
2021/09/09 11:51:37;;;;;;;;;;;28.60;82.90;;;;;;5110240;28;20331;-77
2021/09/09 11:54:03;;;;;;;;;;;28.60;83.00;;;;;;5093172;28;20052;-79
2021/09/09 11:56:29;;;;;;;;;;;28.60;82.60;;;;;;5091411;28;20002;-78
2021/09/09 11:58:56;;;;;;;;;;;28.50;82.80;;;;;;5109896;28;19910;-77
2021/09/09 12:01:22;;;;;;;;;;;28.40;83.10;;;;;;5110198;28;20243;-77
2021/09/09 12:03:48;;;;;;;;;;;28.50;83.20;;;;;;5110182;28;19919;-79
2021/09/09 12:06:18;;;;;;;;;;;28.50;82.90;;;;;;5092089;28;19912;-77
2021/09/09 12:08:44;;;;;;;;;;;28.40;82.90;;;;;;5110896;28;20251;-75
2021/09/09 12:11:11;;;;;;;;;;;28.40;83.00;;;;;;5110790;28;19904;-78
2021/09/09 12:13:39;;;;;;;;;;;28.30;83.00;;;;;;5091910;28;19903;-78
2021/09/09 12:16:14;;;;;;;;;;;28.20;82.90;;;;;;5109618;28;20006;-77
2021/09/09 12:18:41;;;;;;;;;;;28.20;82.50;;;;;;5110238;28;19931;-78
2021/09/09 12:21:11;;;;;;;;;;;28.20;82.00;;;;;;5075698;28;19908;-78
2021/09/09 12:23:36;;;;;;;;;;;28.20;81.70;;;;;;5090614;28;20462;-78
2021/09/09 12:26:20;;;;;;;;;;;28.10;81.60;;;;;;5102114;28;19946;-76
2021/09/09 12:28:46;;;;;;;;;;;28.10;81.70;;;;;;5110249;28;19948;-76
2021/09/09 12:31:14;;;;;;;;;;;28.20;82.30;;;;;;5092540;28;19919;-76
2021/09/09 12:33:51;;;;;;;;;;;28.30;82.50;;;;;;5092063;28;20191;-76
2021/09/09 12:36:20;;;;;;;;;;;28.40;81.80;;;;;;5109651;28;20294;-77
2021/09/09 12:38:45;;;;;;;;;;;28.40;81.60;;;;;;5109820;28;19990;-77
2021/09/09 12:41:17;;;;;;;;;;;28.40;81.80;;;;;;5109445;28;19951;-74
2021/09/09 12:43:53;;;;;;;;;;;28.30;81.80;;;;;;5107357;28;19907;-78
2021/09/09 12:46:24;;;;;;;;;;;28.20;81.20;;;;;;5109733;28;19904;-76
2021/09/09 12:49:04;;;;;;;;;;;27.90;81.10;;;;;;5109567;28;19954;-76
2021/09/09 12:51:30;;;;;;;;;;;27.60;80.80;;;;;;5104816;28;19916;-78
2021/09/09 12:53:55;;;;;;;;;;;27.20;81.10;;;;;;5109288;28;19903;-76
2021/09/09 12:56:21;;;;;;;;;;;26.90;81.00;;;;;;5090884;28;19929;-75
2021/09/09 12:58:47;;;;;;;;;;;26.50;81.20;;;;;;5108383;28;19919;-75
2021/09/09 13:01:12;;;;;;;;;;;26.30;81.30;;;;;;5092002;28;19908;-79
2021/09/09 13:03:38;;;;;;;;;;;26.00;81.20;;;;;;5110390;28;19904;-79
2021/09/09 13:06:03;;;;;;;;;;;25.70;80.70;;;;;;5091811;28;19918;-74
2021/09/09 13:08:29;;;;;;;;;;;25.40;80.50;;;;;;5109485;28;19939;-75
2021/09/09 13:10:55;;;;;;;;;;;24.90;80.60;;;;;;5091545;28;20006;-76
2021/09/09 13:13:21;;;;;;;;;;;24.20;81.50;;;;;;5091967;28;19998;-75
2021/09/09 13:15:47;;;;;;;;;;;23.60;82.90;;;;;;5091717;28;19908;-76
2021/09/09 13:18:12;;;;;;;;;;;23.30;83.80;;;;;;5109978;28;19908;-74
2021/09/09 13:20:38;;;;;;;;;;;23.20;84.60;;;;;;5106228;28;19911;-75
2021/09/09 13:23:05;;;;;;;;;;;23.20;85.20;;;;;;5109604;28;20560;-76
2021/09/09 13:25:30;;;;;;;;;;;23.30;85.30;;;;;;5109122;28;19987;-75
2021/09/09 13:27:56;;;;;;;;;;;23.50;85.10;;;;;;5109016;28;19965;-76
2021/09/09 13:30:22;;;;;;;;;;;23.70;85.10;;;;;;5108685;28;20276;-76
2021/09/09 13:32:47;;;;;;;;;;;24.00;85.00;;;;;;5108230;28;20379;-74
2021/09/09 13:35:13;;;;;;;;;;;24.20;84.90;;;;;;5108194;28;20342;-74
2021/09/09 13:37:38;;;;;;;;;;;24.60;85.20;;;;;;5090938;28;19930;-76
2021/09/09 13:40:04;;;;;;;;;;;25.10;85.40;;;;;;5109265;28;19912;-74
2021/09/09 13:42:30;;;;;;;;;;;25.50;85.40;;;;;;5109615;28;19961;-76
2021/09/09 13:44:55;;;;;;;;;;;25.70;85.10;;;;;;5109990;28;19991;-75
2021/09/09 13:47:21;;;;;;;;;;;25.90;84.80;;;;;;5109058;28;19955;-74
2021/09/09 13:49:47;;;;;;;;;;;26.10;84.60;;;;;;5090965;28;19990;-76
2021/09/09 13:52:12;;;;;;;;;;;26.20;84.60;;;;;;5090882;28;20544;-76
2021/09/09 13:54:38;;;;;;;;;;;26.40;84.40;;;;;;5109115;28;19910;-76
2021/09/09 13:57:04;;;;;;;;;;;26.40;84.10;;;;;;5108513;28;19950;-77
2021/09/09 13:59:31;;;;;;;;;;;26.40;83.50;;;;;;5108353;28;19938;-74
2021/09/09 14:01:57;;;;;;;;;;;26.30;83.60;;;;;;5108818;28;19916;-74
2021/09/09 14:04:23;;;;;;;;;;;26.30;83.70;;;;;;5108785;28;20362;-71
2021/09/09 14:06:48;;;;;;;;;;;26.40;83.60;;;;;;5108175;28;19918;-74
2021/09/09 14:09:14;;;;;;;;;;;26.30;83.20;;;;;;5109068;28;20304;-75
2021/09/09 14:11:40;;;;;;;;;;;26.20;82.90;;;;;;5111909;28;19912;-76
2021/09/09 14:14:06;;;;;;;;;;;26.20;82.80;;;;;;5112729;28;19911;-75